Time;durP1;ratioP1;P1;durP2;ratioP2;P2;SDS_P1;SDS_P2;PMS_P1;PMS_P2;Temp;Humidity;BMP_temperature;BMP_pressure;BME280_temperature;BME280_humidity;BME280_pressure;Samples;Min_cycle;Max_cycle;Signal;HPM_P1;HPM_P2
2022/02/10 00:21:18;;;;;;;41.55;20.90;;;;;;;8.49;95.34;102052.91;5055907;28;20110;-42
2022/02/10 00:24:49;;;;;;;45.63;21.98;;;;;;;8.54;95.17;102048.13;5055518;28;20025;-42
2022/02/10 00:34:46;;;;;;;36.97;20.45;;;;;;;8.44;94.30;102042.22;5055288;28;20128;-42
2022/02/10 00:37:13;;;;;;;35.90;20.23;;;;;;;8.43;94.70;102040.59;5055212;28;20556;-42
2022/02/10 00:42:05;;;;;;;31.98;18.75;;;;;;;8.40;93.82;102032.31;5055476;28;20037;-43
2022/02/10 00:44:31;;;;;;;38.28;20.42;;;;;;;8.37;94.42;102041.09;5055149;28;20025;-42
2022/02/10 00:46:56;;;;;;;37.83;21.05;;;;;;;8.44;94.33;102039.63;5054834;28;20453;-42
2022/02/10 00:49:21;;;;;;;34.47;20.60;;;;;;;8.38;94.82;102037.59;5054790;28;20032;-42
2022/02/10 00:51:48;;;;;;;33.13;19.90;;;;;;;8.38;94.90;102024.72;5054749;28;20568;-42
2022/02/10 00:54:18;;;;;;;38.38;20.77;;;;;;;8.36;94.11;102030.00;5054959;28;20386;-42
2022/02/10 00:56:44;;;;;;;34.13;19.95;;;;;;;8.41;93.91;102026.22;5054490;28;20032;-42
2022/02/10 00:59:25;;;;;;;35.65;20.85;;;;;;;8.52;93.80;102019.13;5054838;28;20025;-42
2022/02/10 01:10:30;;;;;;;32.30;19.00;;;;;;;8.39;93.74;102018.63;5054989;28;20040;-42
2022/02/10 01:13:22;;;;;;;33.67;19.45;;;;;;;8.28;93.56;101973.22;5054598;28;20036;-42
2022/02/10 01:29:41;;;;;;;31.85;19.98;;;;;;;8.24;93.92;101989.94;5054246;28;20039;-42
2022/02/10 01:32:07;;;;;;;33.30;19.65;;;;;;;8.29;94.22;101986.94;5054220;28;20135;-42
2022/02/10 01:34:35;;;;;;;31.67;18.98;;;;;;;8.28;94.08;101986.09;5053886;28;20067;-42
2022/02/10 01:37:01;;;;;;;30.15;18.73;;;;;;;8.28;93.73;101985.31;5054122;28;20379;-42
2022/02/10 01:39:31;;;;;;;30.83;19.02;;;;;;;8.30;93.28;101979.06;5053704;28;20032;-42
2022/02/10 02:03:49;;;;;;;33.78;20.55;;;;;;;8.16;95.16;101935.75;5043247;28;20456;-43
2022/02/10 02:06:22;;;;;;;34.03;20.65;;;;;;;7.94;94.69;101905.22;5053400;28;20107;-43
2022/02/10 02:08:48;;;;;;;37.65;20.95;;;;;;;8.12;95.11;101932.66;5053925;28;20518;-42
2022/02/10 02:11:13;;;;;;;35.38;20.33;;;;;;;8.21;94.77;101922.47;5053370;28;20162;-42
2022/02/10 02:13:38;;;;;;;36.42;20.48;;;;;;;8.11;94.86;101922.47;5053250;28;20020;-42
2022/02/10 02:16:04;;;;;;;34.17;21.48;;;;;;;8.16;94.72;101916.91;5053240;28;20406;-42
2022/02/10 02:18:30;;;;;;;37.63;20.98;;;;;;;8.16;95.04;101907.44;5051760;28;20037;-43
2022/02/10 02:20:57;;;;;;;37.85;21.05;;;;;;;8.14;95.02;101909.31;5053281;28;20021;-43
2022/02/10 02:23:25;;;;;;;37.72;21.52;;;;;;;8.10;95.02;101900.28;5053080;28;20040;-43
2022/02/10 02:25:57;;;;;;;34.13;21.33;;;;;;;8.02;95.67;101913.03;5053111;28;20063;-43
2022/02/10 02:28:23;;;;;;;37.40;21.58;;;;;;;8.04;95.59;101908.56;5053529;28;20051;-49
2022/02/10 02:30:54;;;;;;;44.38;22.38;;;;;;;8.15;95.43;101898.09;5053428;28;20036;-42
2022/02/10 03:06:14;;;;;;;44.35;23.05;;;;;;;7.90;96.44;101873.81;5056768;28;20028;-46
2022/02/10 03:08:45;;;;;;;47.15;24.17;;;;;;;7.99;96.55;101867.81;5057407;28;20025;-48
2022/02/10 03:11:12;;;;;;;48.00;24.52;;;;;;;8.03;97.08;101866.59;5056699;28;20045;-42
2022/02/10 03:13:45;;;;;;;43.95;24.38;;;;;;;8.06;96.19;101862.91;5057043;28;20059;-44
2022/02/10 03:17:09;;;;;;;44.78;23.85;;;;;;;8.00;96.70;101861.72;5055744;28;20424;-43
2022/02/10 04:10:50;;;;;;;47.92;24.10;;;;;;;7.81;97.51;101843.78;5055750;28;20363;-42
2022/02/10 04:24:20;;;;;;;48.13;25.20;;;;;;;7.84;97.26;101841.72;5036380;28;20037;-42
2022/02/10 04:59:00;;;;;;;43.92;20.23;;;;;;;7.76;99.28;101846.78;5055284;28;20032;-42
2022/02/10 05:22:11;;;;;;;7.30;2.30;;;;;;;7.20;96.28;101852.78;5054127;28;20158;-42
2022/02/10 05:24:47;;;;;;;5.03;2.50;;;;;;;7.21;97.15;101856.97;5053943;28;20036;-42
2022/02/10 05:32:57;;;;;;;5.88;2.05;;;;;;;7.31;95.52;101855.19;5053915;28;20035;-43
2022/02/10 05:38:08;;;;;;;6.18;2.58;;;;;;;7.27;96.12;101863.31;5054060;28;20040;-41
2022/02/10 05:45:50;;;;;;;5.55;2.50;;;;;;;7.21;97.15;101860.34;5054240;28;20025;-42
2022/02/10 07:12:31;;;;;;;13.38;4.05;;;;;;;7.07;95.55;101908.81;5055560;28;20037;-41
2022/02/10 07:46:34;;;;;;;9.80;4.68;;;;;;;7.08;95.44;101913.81;5056179;28;20040;-42
2022/02/10 07:47:55;;;;;;;9.10;3.83;;;;;;;7.10;94.20;101911.91;5055915;28;20099;-43
2022/02/10 08:50:43;;;;;;;15.55;7.78;;;;;;;7.56;94.57;101991.84;5053134;28;20039;-43
2022/02/10 09:06:19;;;;;;;13.55;7.18;;;;;;;8.44;90.89;101974.44;5055048;28;20064;-42
2022/02/10 09:17:11;;;;;;;11.98;7.00;;;;;;;8.15;89.43;101980.47;5054582;28;20057;-43
2022/02/10 09:23:05;;;;;;;10.88;6.15;;;;;;;7.95;90.41;101997.75;5054197;28;20021;-42
2022/02/10 09:55:21;;;;;;;11.50;3.88;;;;;;;8.57;84.61;101993.75;5052581;28;20044;-41
2022/02/10 10:00:28;;;;;;;9.07;4.30;;;;;;;9.16;84.03;101995.94;5053757;28;20082;-43
2022/02/10 10:05:54;;;;;;;7.57;3.50;;;;;;;9.09;83.83;102005.22;5050539;28;20060;-43
2022/02/10 10:08:37;;;;;;;9.75;3.50;;;;;;;9.14;83.29;102003.81;5050819;28;20032;-42
2022/02/10 10:11:40;;;;;;;;;;;;;;;9.26;83.22;102001.81;5052860;28;20021;-43
2022/02/10 10:53:26;;;;;;;8.27;2.13;;;;;;;16.89;52.96;102047.53;5052287;28;20045;-43
2022/02/10 10:56:07;;;;;;;5.88;2.13;;;;;;;17.32;51.44;102043.75;5053392;28;20032;-44
2022/02/10 10:59:14;;;;;;;7.50;2.65;;;;;;;14.58;58.49;102050.09;5053295;28;20375;-43
2022/02/10 11:03:42;;;;;;;7.35;2.17;;;;;;;13.97;60.24;102042.47;5052288;28;20033;-42
2022/02/10 11:38:10;;;;;;;;;;;;;;;9.56;74.12;102044.50;5056367;28;20082;-45
2022/02/10 11:41:07;;;;;;;15.02;4.50;;;;;;;9.47;72.64;102043.63;5053396;28;19908;-42
2022/02/10 11:46:38;;;;;;;9.57;2.17;;;;;;;9.81;70.92;102045.50;5055531;28;20040;-49
2022/02/10 12:01:27;;;;;;;8.63;2.00;;;;;;;10.12;65.33;102045.84;5055258;28;20087;-42
2022/02/10 12:33:37;;;;;;;8.98;1.83;;;;;;;11.06;62.16;102032.00;5055614;28;20036;-42
2022/02/10 14:19:38;;;;;;;11.20;2.13;;;;;;;8.65;69.40;102015.41;5053167;28;20029;-42
2022/02/10 14:22:10;;;;;;;8.80;1.73;;;;;;;8.63;71.00;102015.56;5053618;28;20056;-41
2022/02/10 14:27:21;;;;;;;10.68;2.00;;;;;;;8.59;71.02;102022.75;5053392;28;20079;-44
2022/02/10 14:29:47;;;;;;;8.52;2.08;;;;;;;8.54;68.44;102027.50;5053189;28;20036;-42
2022/02/10 14:32:16;;;;;;;9.35;1.75;;;;;;;8.52;68.85;102024.28;5052246;28;20025;-41
2022/02/10 14:34:42;;;;;;;12.45;2.35;;;;;;;8.63;68.70;102025.03;5052950;28;20024;-43
2022/02/10 14:37:25;;;;;;;10.13;2.03;;;;;;;8.52;69.39;102028.63;5053308;28;20028;-44
2022/02/10 14:39:58;;;;;;;13.88;2.15;;;;;;;8.59;69.11;102038.19;5053367;28;20075;-44
2022/02/10 15:13:11;;;;;;;9.13;1.98;;;;;;;7.68;69.50;102050.78;5056620;28;20094;-41
2022/02/10 15:48:37;;;;;;;6.93;1.73;;;;;;;7.16;74.03;102057.09;5055509;28;20086;-42
2022/02/10 16:19:28;;;;;;;9.30;2.13;;;;;;;6.64;75.03;102049.50;5055112;28;20033;-43
2022/02/10 16:22:01;;;;;;;8.75;1.58;;;;;;;6.68;73.17;102038.06;5055491;28;20021;-41
2022/02/10 16:24:46;;;;;;;9.15;1.58;;;;;;;6.66;73.46;102031.41;5052490;28;20052;-41
2022/02/10 16:27:23;;;;;;;10.77;1.50;;;;;;;6.65;73.25;102046.03;5053490;28;20460;-41
2022/02/10 16:29:52;;;;;;;12.38;2.05;;;;;;;6.76;73.25;102035.66;5054135;28;20049;-42
2022/02/10 16:32:17;;;;;;;11.15;1.58;;;;;;;6.65;72.83;102028.03;5053933;28;20036;-42
2022/02/10 16:34:43;;;;;;;9.27;1.98;;;;;;;6.47;72.34;102022.72;5053876;28;20028;-43
2022/02/10 16:37:10;;;;;;;6.97;1.50;;;;;;;6.63;73.14;102041.97;5054409;28;20025;-42
2022/02/10 16:39:37;;;;;;;8.13;1.50;;;;;;;6.67;73.48;102036.41;5055046;28;20040;-42
2022/02/10 16:42:05;;;;;;;9.68;1.70;;;;;;;6.45;75.10;102047.69;5055671;28;20070;-42
2022/02/10 16:44:30;;;;;;;13.73;2.10;;;;;;;6.44;75.72;102053.75;5055083;28;20029;-43
2022/02/10 16:46:56;;;;;;;9.45;2.00;;;;;;;6.45;74.21;102059.72;5055505;28;20148;-41
2022/02/10 16:49:23;;;;;;;10.13;1.80;;;;;;;6.49;74.40;102053.38;5054207;28;20013;-45
2022/02/10 16:51:48;;;;;;;6.80;1.80;;;;;;;6.45;75.31;102047.69;5054334;28;20033;-42
2022/02/10 16:54:23;;;;;;;11.48;2.22;;;;;;;6.48;73.23;102046.63;5051650;28;20131;-46
2022/02/10 16:57:09;;;;;;;10.57;3.05;;;;;;;6.23;75.69;102042.72;5052978;28;20025;-42
2022/02/10 17:26:31;;;;;;;8.60;1.90;;;;;;;6.01;74.53;102056.50;5054316;28;20215;-42
2022/02/10 17:29:02;;;;;;;10.20;2.28;;;;;;;6.09;74.80;102057.50;5053737;28;20474;-42
2022/02/10 17:31:46;;;;;;;13.93;2.38;;;;;;;6.09;74.37;102054.13;5053903;28;20144;-43
2022/02/10 17:37:10;;;;;;;10.30;3.15;;;;;;;6.02;76.49;102070.97;5054409;28;20069;-47
2022/02/10 17:42:54;;;;;;;14.02;3.05;;;;;;;6.05;74.30;102075.88;5054557;28;20039;-41
2022/02/10 17:52:59;;;;;;;9.15;2.38;;;;;;;5.73;74.63;102052.78;5053571;28;20031;-49
2022/02/10 17:55:26;;;;;;;11.50;2.47;;;;;;;5.79;75.23;102052.28;5052255;28;20082;-41
2022/02/10 17:57:51;;;;;;;10.93;2.30;;;;;;;5.91;73.92;102073.56;5051752;28;20025;-45
2022/02/10 18:00:17;;;;;;;13.93;3.05;;;;;;;6.01;73.47;102064.19;5053452;28;20036;-43
2022/02/10 18:02:45;;;;;;;11.68;2.78;;;;;;;5.88;74.71;102072.06;5053799;28;20016;-44
2022/02/10 18:05:21;;;;;;;11.85;3.05;;;;;;;5.84;75.51;102080.94;5053751;28;20031;-43
2022/02/10 18:07:50;;;;;;;8.45;2.55;;;;;;;5.78;75.77;102078.88;5053190;28;20460;-41
2022/02/10 18:13:32;;;;;;;12.68;2.90;;;;;;;5.79;76.65;102091.59;5030717;28;20030;-42
2022/02/10 18:16:01;;;;;;;13.02;2.58;;;;;;;5.78;77.33;102086.56;5050369;28;20025;-55
2022/02/10 18:18:36;;;;;;;13.85;2.55;;;;;;;5.92;78.76;102096.53;5050397;28;20490;-41
2022/02/10 18:21:22;;;;;;;9.63;2.38;;;;;;;5.88;75.88;102087.47;5050636;28;20542;-42
2022/02/10 18:26:58;;;;;;;11.15;2.95;;;;;;;5.72;76.78;102069.91;5048769;28;20056;-43
2022/02/10 19:02:31;;;;;;;9.55;2.42;;;;;;;5.75;77.62;102091.94;5052876;28;20124;-41
2022/02/10 19:10:14;;;;;;;12.68;3.40;;;;;;;5.64;77.17;102074.88;5052298;28;20021;-41
2022/02/10 19:12:47;;;;;;;10.18;2.78;;;;;;;5.78;76.85;102086.56;5052733;28;20459;-41
2022/02/10 19:17:40;;;;;;;10.00;2.83;;;;;;;5.73;75.94;102081.00;5052686;28;20056;-42
2022/02/10 19:20:07;;;;;;;12.40;3.00;;;;;;;5.70;75.57;102084.63;5053290;28;20383;-41
2022/02/10 19:22:32;;;;;;;11.88;3.33;;;;;;;5.81;75.64;102082.00;5052580;28;20040;-42
2022/02/10 19:24:58;;;;;;;11.48;3.25;;;;;;;5.66;75.69;102062.72;5052686;28;20029;-43
2022/02/10 19:27:23;;;;;;;15.68;3.13;;;;;;;5.66;76.24;102085.78;5052592;28;20537;-41
2022/02/10 19:29:56;;;;;;;11.52;3.17;;;;;;;5.69;76.72;102087.31;5052594;28;20102;-41
2022/02/10 19:32:21;;;;;;;13.55;3.10;;;;;;;5.63;78.25;102086.03;5053055;28;20025;-42
2022/02/10 19:34:48;;;;;;;15.60;3.20;;;;;;;5.57;77.58;102091.66;5052699;28;20483;-42
2022/02/10 19:37:15;;;;;;;12.10;3.20;;;;;;;5.51;76.72;102089.59;5052595;28;20017;-42
2022/02/10 19:39:43;;;;;;;14.88;3.30;;;;;;;5.58;77.56;102085.59;5052883;28;20451;-41
2022/02/10 19:42:09;;;;;;;13.20;3.17;;;;;;;5.51;77.91;102084.47;5054265;28;20056;-42
2022/02/10 19:44:35;;;;;;;15.35;3.92;;;;;;;5.54;77.01;102077.31;5056362;28;20036;-42
2022/02/10 19:47:03;;;;;;;14.25;3.50;;;;;;;5.65;77.63;102087.53;5056034;28;20047;-41
2022/02/10 19:49:29;;;;;;;12.48;3.85;;;;;;;5.67;76.56;102084.88;5056340;28;20497;-43
2022/02/10 19:51:54;;;;;;;18.65;3.90;;;;;;;5.55;76.60;102085.84;5056043;28;20021;-42
2022/02/10 19:54:34;;;;;;;16.90;4.70;;;;;;;5.54;76.26;102085.03;5055977;28;20028;-41
2022/02/10 19:56:59;;;;;;;13.90;3.90;;;;;;;5.52;77.97;102089.44;5056043;28;20158;-43
2022/02/10 19:59:27;;;;;;;12.80;4.30;;;;;;;5.50;77.60;102090.53;5054722;28;20108;-43
2022/02/10 20:01:53;;;;;;;12.88;4.10;;;;;;;5.40;79.03;102091.22;5054437;28;20021;-44
2022/02/10 20:04:24;;;;;;;15.02;3.40;;;;;;;5.34;78.19;102098.59;5055896;28;20371;-42
2022/02/10 20:06:51;;;;;;;16.25;3.70;;;;;;;5.40;77.30;102105.81;5055640;28;20024;-42
2022/02/10 20:09:16;;;;;;;16.15;5.53;;;;;;;5.41;77.31;102090.31;5055610;28;20025;-42
2022/02/10 20:11:42;;;;;;;11.30;3.28;;;;;;;5.41;78.89;102090.31;5055469;28;20501;-43
2022/02/10 20:14:07;;;;;;;12.18;3.60;;;;;;;5.43;78.46;102098.69;5055543;28;20052;-42
2022/02/10 20:16:33;;;;;;;13.25;3.30;;;;;;;5.47;78.33;102096.72;5055415;28;20040;-42
2022/02/10 20:18:58;;;;;;;20.23;3.42;;;;;;;5.42;78.70;102098.81;5055408;28;20044;-42
2022/02/10 20:21:23;;;;;;;12.95;3.50;;;;;;;5.49;77.46;102104.28;5055281;28;20044;-42
2022/02/10 20:23:49;;;;;;;10.38;3.03;;;;;;;5.37;78.17;102088.09;5055519;28;20025;-41
2022/02/10 20:26:15;;;;;;;11.00;3.40;;;;;;;5.42;77.40;102089.38;5055570;28;20024;-42
2022/02/10 20:28:42;;;;;;;9.05;3.28;;;;;;;5.35;78.23;102089.97;5055806;28;20017;-43
2022/02/10 20:31:08;;;;;;;16.58;4.15;;;;;;;5.42;77.75;102094.50;5055169;28;20036;-44
2022/02/10 20:33:34;;;;;;;13.18;2.90;;;;;;;5.38;78.69;102093.13;5055409;28;20055;-42
2022/02/10 20:36:03;;;;;;;12.70;2.80;;;;;;;5.36;78.78;102097.56;5054953;28;20464;-42
2022/02/10 20:38:30;;;;;;;14.63;3.70;;;;;;;5.39;77.27;102096.50;5054855;28;20037;-43
2022/02/10 20:41:02;;;;;;;11.57;2.78;;;;;;;5.34;78.28;102093.47;5055206;28;20206;-43
2022/02/10 20:43:28;;;;;;;12.30;3.13;;;;;;;5.35;78.10;102085.69;5055327;28;20035;-42
2022/02/10 20:45:58;;;;;;;13.15;3.53;;;;;;;5.47;78.03;102094.16;5054879;28;20025;-42
2022/02/10 20:48:26;;;;;;;14.75;3.33;;;;;;;5.60;77.65;102092.22;5055197;28;20144;-41
2022/02/10 20:50:54;;;;;;;13.70;3.25;;;;;;;5.51;77.75;102085.25;5054780;28;20108;-42
2022/02/10 20:53:23;;;;;;;13.02;3.25;;;;;;;5.59;78.57;102090.59;5054734;28;20025;-43
2022/02/10 20:55:49;;;;;;;16.65;3.13;;;;;;;5.65;77.23;102099.56;5054983;28;20027;-42
2022/02/10 20:58:18;;;;;;;13.55;3.55;;;;;;;5.70;76.76;102087.19;5054640;28;20024;-42
2022/02/10 21:00:43;;;;;;;8.93;2.80;;;;;;;5.61;78.14;102093.03;5054939;28;20044;-43
2022/02/10 21:03:09;;;;;;;11.30;3.40;;;;;;;5.60;78.09;102099.91;5054576;28;20020;-43
2022/02/10 21:05:39;;;;;;;12.73;3.25;;;;;;;5.51;77.79;102089.59;5053659;28;20029;-43
2022/02/10 21:08:16;;;;;;;13.45;3.15;;;;;;;5.46;78.39;102081.44;5052522;28;20021;-42
2022/02/10 21:10:42;;;;;;;8.98;3.60;;;;;;;5.27;79.64;102079.53;5054194;28;20100;-42
2022/02/10 21:13:10;;;;;;;8.60;2.97;;;;;;;5.38;78.15;102080.31;5054684;28;20025;-42
2022/02/10 21:15:43;;;;;;;12.13;3.03;;;;;;;5.32;78.14;102080.78;5054449;28;20020;-44
2022/02/10 21:18:09;;;;;;;;;;;;;;;5.34;79.74;102080.66;5054533;28;20049;-41
2022/02/10 21:20:36;;;;;;;9.25;2.70;;;;;;;5.34;78.83;102063.53;5054457;28;19977;-41
2022/02/10 21:23:15;;;;;;;15.02;3.15;;;;;;;5.25;80.09;102073.69;5054420;28;20021;-42
2022/02/10 21:25:42;;;;;;;8.63;2.75;;;;;;;5.14;78.80;102077.09;5054514;28;20024;-41
2022/02/10 21:28:24;;;;;;;8.82;3.15;;;;;;;5.23;78.43;102078.94;5053079;28;20249;-49
2022/02/10 21:30:53;;;;;;;10.60;3.60;;;;;;;5.18;78.56;102074.19;5053278;28;20036;-42
2022/02/10 21:38:31;;;;;;;12.82;3.35;;;;;;;5.06;79.71;102076.88;5054461;28;20063;-43
2022/02/10 21:59:43;;;;;;;15.40;3.40;;;;;;;4.69;81.81;102069.44;5052692;28;20033;-43
2022/02/10 22:18:58;;;;;;;7.97;3.00;;;;;;;4.64;80.13;102069.81;5053436;28;20056;-43
2022/02/10 22:23:52;;;;;;;16.10;3.00;;;;;;;4.65;80.49;102075.72;5053820;28;20025;-43
2022/02/10 22:26:21;;;;;;;14.88;2.95;;;;;;;4.72;79.61;102074.34;5053390;28;20032;-42
2022/02/10 22:36:42;;;;;;;12.23;2.70;;;;;;;4.70;79.02;102082.13;5053529;28;20395;-43
2022/02/10 22:39:09;;;;;;;9.10;2.40;;;;;;;4.62;79.44;102075.97;5053446;28;20112;-43
2022/02/10 22:41:35;;;;;;;10.35;2.75;;;;;;;4.62;79.28;102070.84;5053732;28;20108;-42
2022/02/10 22:44:02;;;;;;;11.40;2.25;;;;;;;4.59;78.91;102066.78;5053094;28;20106;-42
2022/02/10 22:46:28;;;;;;;9.40;2.40;;;;;;;4.57;78.33;102068.63;5053385;28;20033;-42
2022/02/10 22:48:53;;;;;;;8.93;2.63;;;;;;;4.65;78.40;102068.06;5053121;28;20479;-43
2022/02/10 22:51:23;;;;;;;10.40;2.45;;;;;;;4.53;78.59;102070.59;5053395;28;20095;-43
2022/02/10 22:53:48;;;;;;;13.50;2.78;;;;;;;4.57;79.29;102070.38;5050800;28;20078;-41
2022/02/10 22:56:17;;;;;;;8.25;2.33;;;;;;;4.60;77.38;102070.13;5052396;28;20371;-43
2022/02/10 22:58:43;;;;;;;13.57;2.45;;;;;;;4.50;78.76;102075.16;5052963;28;20459;-42
2022/02/10 23:01:11;;;;;;;13.25;2.40;;;;;;;4.44;78.63;102081.53;5053338;28;20029;-42
2022/02/10 23:03:37;;;;;;;10.13;2.05;;;;;;;4.39;78.31;102075.94;5053158;28;20028;-43
2022/02/10 23:06:04;;;;;;;10.73;2.38;;;;;;;4.39;77.91;102072.56;5051716;28;20021;-43
2022/02/10 23:08:29;;;;;;;11.80;2.30;;;;;;;4.43;78.74;102079.09;5052911;28;20025;-43
2022/02/10 23:10:55;;;;;;;11.00;1.85;;;;;;;4.50;77.69;102075.16;5052476;28;20032;-42
2022/02/10 23:13:29;;;;;;;11.15;2.13;;;;;;;4.47;78.09;102081.31;5052654;28;20025;-43
2022/02/10 23:15:56;;;;;;;11.40;2.00;;;;;;;4.36;78.38;102081.28;5052930;28;20052;-43
2022/02/10 23:18:25;;;;;;;16.67;2.30;;;;;;;4.29;81.13;102077.56;5055786;28;20431;-48
2022/02/10 23:20:52;;;;;;;11.93;1.95;;;;;;;4.26;79.11;102070.94;5056928;28;20025;-44
2022/02/10 23:23:20;;;;;;;13.15;2.55;;;;;;;4.28;79.30;102071.63;5056124;28;20103;-44
2022/02/10 23:25:47;;;;;;;10.90;2.20;;;;;;;4.28;79.93;102081.03;5057298;28;20033;-43
2022/02/10 23:28:16;;;;;;;9.90;2.03;;;;;;;4.32;78.60;102079.09;5056433;28;20025;-43
2022/02/10 23:30:46;;;;;;;10.40;1.80;;;;;;;4.25;79.99;102078.72;5055179;28;20379;-42
2022/02/10 23:33:19;;;;;;;12.30;2.33;;;;;;;4.18;79.16;102073.25;5056982;28;20025;-43
2022/02/10 23:38:13;;;;;;;7.88;2.13;;;;;;;4.49;78.67;102081.22;5056215;28;20025;-43
2022/02/10 23:41:02;;;;;;;13.35;2.03;;;;;;;4.47;77.36;102085.63;5056465;28;20025;-43
2022/02/10 23:43:24;;;;;;;15.20;2.63;;;;;;;4.52;77.31;102079.22;5056126;28;20036;-43
2022/02/10 23:45:49;;;;;;;12.45;1.98;;;;;;;4.66;77.75;102083.31;5056172;28;20048;-42
2022/02/10 23:48:15;;;;;;;10.70;2.10;;;;;;;4.62;78.04;102079.34;5056296;28;20021;-42
2022/02/10 23:50:41;;;;;;;10.18;2.35;;;;;;;4.65;77.38;102076.53;5056004;28;20086;-42
2022/02/10 23:53:06;;;;;;;9.88;2.10;;;;;;;4.66;77.23;102077.34;5056706;28;20456;-42
2022/02/10 23:55:36;;;;;;;7.57;1.55;;;;;;;4.66;76.88;102079.91;5056217;28;20151;-42
